createdAt,value
2018-07-30T00:00:04.475Z,3.00
2018-07-30T00:02:39.219Z,2.80
2018-07-30T00:05:09.978Z,3.50
2018-07-30T00:07:39.431Z,3.00
2018-07-30T00:10:09.177Z,2.90
2018-07-30T00:12:38.866Z,3.10
2018-07-30T00:15:08.357Z,2.90
2018-07-30T00:17:37.808Z,2.97
2018-07-30T00:20:07.254Z,3.10
2018-07-30T00:22:36.709Z,2.90
2018-07-30T00:25:06.346Z,3.40
2018-07-30T00:27:35.652Z,3.10
2018-07-30T00:30:05.372Z,3.03
2018-07-30T00:32:34.860Z,2.97
2018-07-30T00:35:04.482Z,3.03
2018-07-30T00:37:34.072Z,3.07
2018-07-30T00:40:03.607Z,3.10
2018-07-30T00:42:32.955Z,3.20
2018-07-30T00:45:02.436Z,2.90
2018-07-30T00:47:31.986Z,3.10
2018-07-30T00:50:01.507Z,2.90
2018-07-30T00:52:30.908Z,2.93
2018-07-30T00:55:00.388Z,3.07
2018-07-30T00:57:29.703Z,3.20
2018-07-30T00:59:59.069Z,3.07
2018-07-30T01:02:28.277Z,3.50
2018-07-30T01:04:57.516Z,2.70
2018-07-30T01:07:26.721Z,3.43
2018-07-30T01:09:55.915Z,2.87
2018-07-30T01:12:25.078Z,3.20
2018-07-30T01:14:54.389Z,2.90
2018-07-30T01:17:23.657Z,3.00
2018-07-30T01:19:53.157Z,3.20
2018-07-30T01:22:22.579Z,3.00
2018-07-30T01:24:51.947Z,3.10
2018-07-30T01:27:21.270Z,3.00
2018-07-30T01:29:50.657Z,3.13
2018-07-30T01:32:20.278Z,2.97
2018-07-30T01:34:49.644Z,2.97
2018-07-30T01:37:19.175Z,3.10
2018-07-30T01:39:48.514Z,3.13
2018-07-30T01:42:17.922Z,3.10
2018-07-30T01:44:47.514Z,3.13
2018-07-30T01:47:17.151Z,3.20
2018-07-30T01:49:46.603Z,3.37
2018-07-30T01:52:16.214Z,3.10
2018-07-30T01:54:45.683Z,3.30
2018-07-30T01:57:15.129Z,2.97
2018-07-30T01:59:44.451Z,2.90
2018-07-30T02:02:14.006Z,2.90
2018-07-30T02:04:43.544Z,3.10
2018-07-30T02:07:13.021Z,2.87
2018-07-30T02:09:42.670Z,2.90
2018-07-30T02:12:12.053Z,3.27
2018-07-30T02:14:41.421Z,3.00
2018-07-30T02:17:10.915Z,3.27
2018-07-30T02:19:40.496Z,2.70
2018-07-30T02:22:09.969Z,3.03
2018-07-30T02:24:39.548Z,3.10
2018-07-30T02:27:09.050Z,3.00
2018-07-30T02:29:38.376Z,3.57
2018-07-30T02:32:07.851Z,3.10
2018-07-30T02:34:37.132Z,3.50
2018-07-30T02:37:06.611Z,2.90
2018-07-30T02:39:35.955Z,3.20
2018-07-30T02:42:05.391Z,2.93
2018-07-30T02:44:34.828Z,3.13
2018-07-30T02:47:04.300Z,3.13
2018-07-30T02:49:33.677Z,3.07
2018-07-30T02:52:03.166Z,3.53
2018-07-30T02:54:32.800Z,3.10
2018-07-30T02:57:02.445Z,2.90
2018-07-30T02:59:31.998Z,3.10
2018-07-30T03:02:01.372Z,3.60
2018-07-30T03:04:30.810Z,3.27
2018-07-30T03:07:00.173Z,2.80
2018-07-30T03:09:29.759Z,3.67
2018-07-30T03:11:59.056Z,3.00
2018-07-30T03:14:28.448Z,3.47
2018-07-30T03:16:57.896Z,3.20
2018-07-30T03:19:27.389Z,3.37
2018-07-30T03:21:56.899Z,2.80
2018-07-30T03:24:26.613Z,3.47
2018-07-30T03:26:56.157Z,3.15
2018-07-30T03:29:25.678Z,3.43
2018-07-30T03:31:55.158Z,3.00
2018-07-30T03:34:24.936Z,3.70
2018-07-30T03:36:54.550Z,3.10
2018-07-30T03:39:24.074Z,3.30
2018-07-30T03:41:53.480Z,3.00
2018-07-30T03:44:23.094Z,3.15
2018-07-30T03:46:52.595Z,2.77
2018-07-30T03:49:22.194Z,3.90
2018-07-30T03:51:51.836Z,3.77
2018-07-30T03:54:21.294Z,3.23
2018-07-30T03:56:51.146Z,3.03
2018-07-30T03:59:20.791Z,3.33
2018-07-30T04:01:50.324Z,3.13
2018-07-30T04:04:19.925Z,3.10
2018-07-30T04:06:49.523Z,3.40
2018-07-30T04:09:21.128Z,3.15
2018-07-30T04:11:50.729Z,3.20
2018-07-30T04:14:20.284Z,3.00
2018-07-30T04:16:52.431Z,3.10
2018-07-30T04:19:22.309Z,3.23
2018-07-30T04:21:51.916Z,3.33
2018-07-30T04:24:21.367Z,3.20
2018-07-30T04:26:51.007Z,3.33
2018-07-30T04:29:20.659Z,3.40
2018-07-30T04:31:50.013Z,3.07
2018-07-30T04:34:19.577Z,3.53
2018-07-30T04:36:49.161Z,3.60
2018-07-30T04:39:18.851Z,3.53
2018-07-30T04:41:48.452Z,3.20
2018-07-30T04:44:18.038Z,3.17
2018-07-30T04:46:47.429Z,2.80
2018-07-30T04:49:16.999Z,2.60
2018-07-30T04:51:51.894Z,3.37
2018-07-30T04:54:21.140Z,3.30
2018-07-30T04:56:50.570Z,2.90
2018-07-30T04:59:19.990Z,3.00
2018-07-30T05:01:49.699Z,2.80
2018-07-30T05:04:19.144Z,3.10
2018-07-30T05:06:48.832Z,3.07
2018-07-30T05:09:18.247Z,2.87
2018-07-30T05:11:47.919Z,2.93
2018-07-30T05:14:17.635Z,2.70
2018-07-30T05:16:47.154Z,2.90
2018-07-30T05:19:16.842Z,2.90
2018-07-30T05:21:46.698Z,2.90
2018-07-30T05:24:16.573Z,3.00
2018-07-30T05:26:46.102Z,3.00
2018-07-30T05:29:16.216Z,2.65
2018-07-30T05:31:46.052Z,3.17
2018-07-30T05:34:15.684Z,2.80
2018-07-30T05:36:45.494Z,3.67
2018-07-30T05:39:15.258Z,3.20
2018-07-30T05:41:44.749Z,3.07
2018-07-30T05:44:14.144Z,3.00
2018-07-30T05:46:43.476Z,2.67
2018-07-30T05:49:12.980Z,3.00
2018-07-30T05:51:42.942Z,3.00
2018-07-30T05:54:12.454Z,3.37
2018-07-30T05:56:42.121Z,3.20
2018-07-30T05:59:11.621Z,3.20
2018-07-30T06:01:41.296Z,2.63
2018-07-30T06:04:10.808Z,2.70
2018-07-30T06:06:40.644Z,2.93
2018-07-30T06:09:10.780Z,2.70
2018-07-30T06:11:40.413Z,2.93
2018-07-30T06:14:10.013Z,2.70
2018-07-30T06:16:39.948Z,3.30
2018-07-30T06:19:09.423Z,2.70
2018-07-30T06:21:39.336Z,2.60
2018-07-30T06:24:09.064Z,2.67
2018-07-30T06:26:38.623Z,3.10
2018-07-30T06:29:08.273Z,2.53
2018-07-30T06:31:38.061Z,2.80
2018-07-30T06:34:07.851Z,2.90
2018-07-30T06:36:37.442Z,2.50
2018-07-30T06:39:08.898Z,2.70
2018-07-30T06:41:38.927Z,2.70
2018-07-30T06:44:08.578Z,2.70
2018-07-30T06:46:38.639Z,2.27
2018-07-30T06:49:08.153Z,2.97
2018-07-30T06:51:37.881Z,3.10
2018-07-30T06:54:07.949Z,2.40
2018-07-30T06:56:37.566Z,2.70
2018-07-30T06:59:07.423Z,2.70
2018-07-30T07:01:36.881Z,2.70
2018-07-30T07:04:06.813Z,2.97
2018-07-30T07:06:36.842Z,2.60
2018-07-30T07:09:08.871Z,2.33
2018-07-30T07:11:38.654Z,2.05
2018-07-30T07:14:08.530Z,2.47
2018-07-30T07:16:38.650Z,2.27
2018-07-30T07:19:08.214Z,2.10
2018-07-30T07:21:37.833Z,2.33
2018-07-30T07:24:07.363Z,2.30
2018-07-30T07:26:36.999Z,2.30
2018-07-30T07:29:06.449Z,2.50
2018-07-30T07:31:36.055Z,2.10
2018-07-30T07:34:05.533Z,2.50
2018-07-30T07:36:35.291Z,2.37
2018-07-30T07:39:07.092Z,2.00
2018-07-30T07:41:37.088Z,1.80
2018-07-30T07:44:06.763Z,2.55
2018-07-30T07:46:36.714Z,2.33
2018-07-30T07:49:06.449Z,2.37
2018-07-30T07:51:36.062Z,2.57
2018-07-30T07:54:05.523Z,2.30
2018-07-30T07:56:34.961Z,2.20
2018-07-30T07:59:04.629Z,2.07
2018-07-30T08:01:34.210Z,2.50
2018-07-30T08:04:03.773Z,2.50
2018-07-30T08:06:33.188Z,2.33
2018-07-30T08:09:02.908Z,2.30
2018-07-30T08:11:32.664Z,2.57
2018-07-30T08:14:02.165Z,2.33
2018-07-30T08:16:31.627Z,2.30
2018-07-30T08:19:01.068Z,2.20
2018-07-30T08:21:31.208Z,2.13
2018-07-30T08:24:00.785Z,2.27
2018-07-30T08:26:30.264Z,2.25
2018-07-30T08:29:00.001Z,2.10
2018-07-30T08:31:29.699Z,2.33
2018-07-30T08:33:59.027Z,2.10
2018-07-30T08:36:28.618Z,1.87
2018-07-30T08:38:58.340Z,1.90
2018-07-30T08:41:27.806Z,1.70
2018-07-30T08:43:57.320Z,2.07
2018-07-30T08:46:27.113Z,1.80
2018-07-30T08:48:56.980Z,1.80
2018-07-30T08:51:26.372Z,1.80
2018-07-30T08:53:55.952Z,1.57
2018-07-30T08:56:25.537Z,1.97
2018-07-30T08:58:55.229Z,2.03
2018-07-30T09:01:24.763Z,1.87
2018-07-30T09:03:54.553Z,1.60
2018-07-30T09:06:24.166Z,1.70
2018-07-30T09:08:53.644Z,1.83
2018-07-30T09:11:23.317Z,1.90
2018-07-30T09:13:52.882Z,2.00
2018-07-30T09:16:22.456Z,1.93
2018-07-30T09:18:51.975Z,2.20
2018-07-30T09:21:21.476Z,1.93
2018-07-30T09:23:50.970Z,1.90
2018-07-30T09:26:20.351Z,1.90
2018-07-30T09:28:49.785Z,2.50
2018-07-30T09:31:19.557Z,2.13
2018-07-30T09:33:49.068Z,2.00
2018-07-30T09:36:22.706Z,1.73
2018-07-30T09:38:52.490Z,2.27
2018-07-30T09:41:22.270Z,1.70
2018-07-30T09:43:52.218Z,1.90
2018-07-30T09:46:21.744Z,1.70
2018-07-30T09:48:51.410Z,1.70
2018-07-30T09:51:21.304Z,1.87
2018-07-30T09:53:50.747Z,1.80
2018-07-30T09:56:20.443Z,1.50
2018-07-30T09:58:49.898Z,1.67
2018-07-30T10:01:24.579Z,2.10
2018-07-30T10:03:54.377Z,1.70
2018-07-30T10:06:24.181Z,1.70
2018-07-30T10:08:55.066Z,2.13
2018-07-30T10:11:24.603Z,1.90
2018-07-30T10:13:54.288Z,1.90
2018-07-30T10:16:23.694Z,2.20
2018-07-30T10:18:53.508Z,2.00
2018-07-30T10:21:23.261Z,1.87
2018-07-30T10:23:52.850Z,2.00
2018-07-30T10:26:22.444Z,1.60
2018-07-30T10:28:52.272Z,2.30
2018-07-30T10:31:22.025Z,1.60
2018-07-30T10:33:51.579Z,1.80
2018-07-30T10:36:21.365Z,1.60
2018-07-30T10:38:51.011Z,1.37
2018-07-30T10:41:20.714Z,1.40
2018-07-30T10:43:50.625Z,1.53
2018-07-30T10:46:20.385Z,1.60
2018-07-30T10:48:49.888Z,1.53
2018-07-30T10:51:19.273Z,1.30
2018-07-30T10:53:48.990Z,1.40
2018-07-30T10:56:18.683Z,1.30
2018-07-30T10:58:48.065Z,1.60
2018-07-30T11:01:17.498Z,1.70
2018-07-30T11:03:46.916Z,1.60
2018-07-30T11:06:16.461Z,1.40
2018-07-30T11:08:46.107Z,1.60
2018-07-30T11:11:15.615Z,1.60
2018-07-30T11:13:45.029Z,1.50
2018-07-30T11:16:14.373Z,1.53
2018-07-30T11:18:43.749Z,1.80
2018-07-30T11:21:13.388Z,1.50
2018-07-30T11:23:42.952Z,1.50
2018-07-30T11:26:12.370Z,1.67
2018-07-30T11:28:41.648Z,1.40
2018-07-30T11:31:11.042Z,2.08
2018-07-30T11:33:40.580Z,1.50
2018-07-30T11:36:09.979Z,1.50
2018-07-30T11:38:39.679Z,1.45
2018-07-30T11:41:09.026Z,1.77
2018-07-30T11:43:38.574Z,1.60
2018-07-30T11:46:07.928Z,1.30
2018-07-30T11:48:37.282Z,1.20
2018-07-30T11:51:07.083Z,1.50
2018-07-30T11:53:36.667Z,1.67
2018-07-30T11:56:06.012Z,1.30
2018-07-30T11:58:35.299Z,1.53
2018-07-30T12:01:04.784Z,1.40
2018-07-30T12:03:34.228Z,1.20
2018-07-30T12:06:03.654Z,1.30
2018-07-30T12:08:33.009Z,1.43
2018-07-30T12:11:02.334Z,1.30
2018-07-30T12:13:31.900Z,1.70
2018-07-30T12:16:01.330Z,1.40
2018-07-30T12:18:30.847Z,1.33
2018-07-30T12:21:00.368Z,1.50
2018-07-30T12:23:29.693Z,1.50
2018-07-30T12:25:59.102Z,1.37
2018-07-30T12:28:28.652Z,1.53
2018-07-30T12:30:58.131Z,1.50
2018-07-30T12:33:27.478Z,1.70
2018-07-30T12:35:56.942Z,1.60
2018-07-30T12:38:26.238Z,1.80
2018-07-30T12:40:55.661Z,1.57
2018-07-30T12:43:25.190Z,1.90
2018-07-30T12:45:54.882Z,1.90
2018-07-30T12:48:24.254Z,1.73
2018-07-30T12:50:54.078Z,1.60
2018-07-30T12:53:23.647Z,1.60
2018-07-30T12:55:53.207Z,1.35
2018-07-30T12:58:22.857Z,1.30
2018-07-30T13:00:52.368Z,1.60
2018-07-30T13:03:21.954Z,1.52
2018-07-30T13:05:51.507Z,1.70
2018-07-30T13:08:21.107Z,1.77
2018-07-30T13:10:50.490Z,1.35
2018-07-30T13:13:19.882Z,1.50
2018-07-30T13:15:49.545Z,1.57
2018-07-30T13:18:19.135Z,1.90
2018-07-30T13:20:48.642Z,1.35
2018-07-30T13:23:18.396Z,1.37
2018-07-30T13:25:48.118Z,1.30
2018-07-30T13:28:17.637Z,1.60
2018-07-30T13:30:47.053Z,1.50
2018-07-30T13:33:16.559Z,1.62
2018-07-30T13:35:46.128Z,1.90
2018-07-30T13:38:15.780Z,1.72
2018-07-30T13:40:45.295Z,1.65
2018-07-30T13:43:14.937Z,1.75
2018-07-30T13:45:44.522Z,1.60
2018-07-30T13:48:14.071Z,1.52
2018-07-30T13:50:43.538Z,1.65
2018-07-30T13:53:13.093Z,1.50
2018-07-30T13:55:42.639Z,1.77
2018-07-30T13:58:12.072Z,1.82
2018-07-30T14:00:41.509Z,1.30
2018-07-30T14:03:11.284Z,1.62
2018-07-30T14:05:40.857Z,1.40
2018-07-30T14:08:10.398Z,1.62
2018-07-30T14:10:39.861Z,1.50
2018-07-30T14:13:09.298Z,1.50
2018-07-30T14:15:38.789Z,1.62
2018-07-30T14:18:08.579Z,1.47
2018-07-30T14:20:38.153Z,1.60
2018-07-30T14:23:07.981Z,1.65
2018-07-30T14:25:37.450Z,1.50
2018-07-30T14:28:07.082Z,1.65
2018-07-30T14:30:36.560Z,1.30
2018-07-30T14:33:06.287Z,1.40
2018-07-30T14:35:35.748Z,1.90
2018-07-30T14:38:05.517Z,1.60
2018-07-30T14:40:35.099Z,1.63
2018-07-30T14:43:04.625Z,1.67
2018-07-30T14:45:34.896Z,1.50
2018-07-30T14:48:04.611Z,1.57
2018-07-30T14:50:34.156Z,1.70
2018-07-30T14:53:03.780Z,1.50
2018-07-30T14:55:33.680Z,1.70
2018-07-30T14:58:03.420Z,1.60
2018-07-30T15:00:32.937Z,1.60
2018-07-30T15:03:02.708Z,1.50
2018-07-30T15:05:32.448Z,1.65
2018-07-30T15:08:01.831Z,1.40
2018-07-30T15:10:31.665Z,1.60
2018-07-30T15:13:01.358Z,1.90
2018-07-30T15:15:31.188Z,1.42
2018-07-30T15:18:01.586Z,1.57
2018-07-30T15:20:31.345Z,1.60
2018-07-30T15:23:00.962Z,1.45
2018-07-30T15:25:30.677Z,1.50
2018-07-30T15:28:00.163Z,1.72
2018-07-30T15:30:29.722Z,1.75
2018-07-30T15:37:35.360Z,1.40
2018-07-30T15:40:05.014Z,1.67
2018-07-30T15:42:34.667Z,1.40
2018-07-30T15:45:04.470Z,1.47
2018-07-30T15:47:33.968Z,1.80
2018-07-30T15:50:05.326Z,1.50
2018-07-30T15:52:35.330Z,1.60
2018-07-30T15:55:04.812Z,1.63
2018-07-30T15:57:34.498Z,1.50
2018-07-30T16:02:33.800Z,1.70
2018-07-30T16:05:03.540Z,1.50
2018-07-30T16:07:33.143Z,1.67
2018-07-30T16:12:32.403Z,1.45
2018-07-30T16:15:01.992Z,2.05
2018-07-30T16:17:31.515Z,1.55
2018-07-30T16:20:01.039Z,1.47
2018-07-30T16:22:30.543Z,1.80
2018-07-30T16:25:00.038Z,1.27
2018-07-30T16:27:29.602Z,2.67
2018-07-30T16:29:58.948Z,2.77
2018-07-30T16:32:28.284Z,2.60
2018-07-30T16:34:57.720Z,2.83
2018-07-30T16:37:27.149Z,2.73
2018-07-30T16:39:56.837Z,2.30
2018-07-30T16:42:26.578Z,2.40
2018-07-30T16:44:56.084Z,3.67
2018-07-30T16:47:25.498Z,3.20
2018-07-30T16:49:54.974Z,3.07
2018-07-30T16:52:24.350Z,3.67
2018-07-30T16:54:53.727Z,3.27
2018-07-30T16:57:23.190Z,3.80
2018-07-30T16:59:52.524Z,3.43
2018-07-30T17:02:22.042Z,3.33
2018-07-30T17:04:51.613Z,3.97
2018-07-30T17:07:21.156Z,3.50
2018-07-30T17:09:50.814Z,2.90
2018-07-30T17:12:23.261Z,3.10
2018-07-30T17:14:52.614Z,2.80
2018-07-30T17:17:22.202Z,2.50
2018-07-30T17:19:51.633Z,2.60
2018-07-30T17:22:21.016Z,2.13
2018-07-30T17:24:50.339Z,2.30
2018-07-30T17:27:19.997Z,2.30
2018-07-30T17:29:49.583Z,2.50
2018-07-30T17:32:19.158Z,1.83
2018-07-30T17:34:48.573Z,2.40
2018-07-30T17:37:18.078Z,2.23
2018-07-30T17:39:47.574Z,1.90
2018-07-30T17:42:16.954Z,2.50
2018-07-30T17:44:46.603Z,2.43
2018-07-30T17:47:16.145Z,2.70
2018-07-30T17:49:45.658Z,2.90
2018-07-30T17:52:15.143Z,2.33
2018-07-30T17:54:44.641Z,2.40
2018-07-30T17:57:14.058Z,2.40
2018-07-30T17:59:43.565Z,2.57
2018-07-30T18:02:12.981Z,2.77
2018-07-30T18:04:42.523Z,2.20
2018-07-30T18:07:11.954Z,2.10
2018-07-30T18:09:41.460Z,2.40
2018-07-30T18:12:10.902Z,2.30
2018-07-30T18:14:40.317Z,2.50
2018-07-30T18:17:09.968Z,2.20
2018-07-30T18:19:39.461Z,2.10
2018-07-30T18:22:08.866Z,2.30
2018-07-30T18:24:38.451Z,2.60
2018-07-30T18:27:07.829Z,2.30
2018-07-30T18:29:37.374Z,2.30
2018-07-30T18:32:06.988Z,2.17
2018-07-30T18:34:36.496Z,2.90
2018-07-30T18:37:06.029Z,3.10
2018-07-30T18:39:35.495Z,3.03
2018-07-30T18:42:04.949Z,2.70
2018-07-30T18:44:34.483Z,3.03
2018-07-30T18:47:03.812Z,2.60
2018-07-30T18:49:33.355Z,2.70
2018-07-30T18:52:03.029Z,2.90
2018-07-30T18:54:32.523Z,2.90
2018-07-30T18:57:02.000Z,2.80
2018-07-30T18:59:31.463Z,3.25
2018-07-30T19:02:00.939Z,3.20
2018-07-30T19:04:30.333Z,3.40
2018-07-30T19:06:59.733Z,3.83
2018-07-30T19:09:29.149Z,3.27
2018-07-30T19:11:58.697Z,3.70
2018-07-30T19:14:28.057Z,3.37
2018-07-30T19:16:57.546Z,3.40
2018-07-30T19:19:27.013Z,3.57
2018-07-30T19:21:56.537Z,3.13
2018-07-30T19:24:25.896Z,3.17
2018-07-30T19:26:55.213Z,3.50
2018-07-30T19:29:24.798Z,3.60
2018-07-30T19:31:54.379Z,3.60
2018-07-30T19:34:23.858Z,3.10
2018-07-30T19:36:53.328Z,3.93
2018-07-30T19:39:22.826Z,3.70
2018-07-30T19:41:52.322Z,3.40
2018-07-30T19:44:21.902Z,3.70
2018-07-30T19:46:51.578Z,3.43
2018-07-30T19:49:21.102Z,4.00
2018-07-30T19:51:50.660Z,4.00
2018-07-30T19:54:20.193Z,4.37
2018-07-30T19:56:49.714Z,4.37
2018-07-30T19:59:19.330Z,3.60
2018-07-30T20:01:48.929Z,3.63
2018-07-30T20:04:18.522Z,3.60
2018-07-30T20:06:47.963Z,4.50
2018-07-30T20:09:17.410Z,3.90
2018-07-30T20:11:46.882Z,3.80
2018-07-30T20:14:16.479Z,4.00
2018-07-30T20:16:45.987Z,4.23
2018-07-30T20:19:15.536Z,3.67
2018-07-30T20:21:45.214Z,3.97
2018-07-30T20:24:14.754Z,4.20
2018-07-30T20:26:44.375Z,4.93
2018-07-30T20:29:13.985Z,5.20
2018-07-30T20:31:43.473Z,4.87
2018-07-30T20:34:12.895Z,4.80
2018-07-30T20:36:42.677Z,4.50
2018-07-30T20:39:12.121Z,4.77
2018-07-30T20:41:41.617Z,5.23
2018-07-30T20:44:11.107Z,5.00
2018-07-30T20:46:40.653Z,5.20
2018-07-30T20:49:10.054Z,4.83
2018-07-30T20:51:39.648Z,5.07
2018-07-30T20:54:09.104Z,4.90
2018-07-30T20:56:38.609Z,4.60
2018-07-30T20:59:08.069Z,4.50
2018-07-30T21:01:37.649Z,5.07
2018-07-30T21:04:07.310Z,4.97
2018-07-30T21:06:36.722Z,4.70
2018-07-30T21:09:08.130Z,5.07
2018-07-30T21:11:37.483Z,5.20
2018-07-30T21:14:07.207Z,5.60
2018-07-30T21:16:36.905Z,5.30
2018-07-30T21:19:06.240Z,5.30
2018-07-30T21:21:35.550Z,4.87
2018-07-30T21:24:05.133Z,4.83
2018-07-30T21:26:34.554Z,4.70
2018-07-30T21:29:03.997Z,4.40
2018-07-30T21:31:33.658Z,4.30
2018-07-30T21:34:03.065Z,5.00
2018-07-30T21:36:32.426Z,5.93
2018-07-30T21:39:01.825Z,6.17
2018-07-30T21:41:31.407Z,5.85
2018-07-30T21:44:00.739Z,5.30
2018-07-30T21:46:30.042Z,5.57
2018-07-30T21:48:59.519Z,6.05
2018-07-30T21:51:29.111Z,5.37
2018-07-30T21:53:58.704Z,5.90
2018-07-30T21:56:28.040Z,5.73
2018-07-30T21:58:57.489Z,5.13
2018-07-30T22:01:26.940Z,5.23
2018-07-30T22:03:56.593Z,7.07
2018-07-30T22:06:26.084Z,6.20
2018-07-30T22:08:55.688Z,7.13
2018-07-30T22:11:25.030Z,5.87
2018-07-30T22:13:54.399Z,6.97
2018-07-30T22:16:23.739Z,7.20
2018-07-30T22:18:53.263Z,8.50
2018-07-30T22:21:22.825Z,7.13
2018-07-30T22:23:52.396Z,7.37
2018-07-30T22:26:21.973Z,6.27
2018-07-30T22:28:51.555Z,5.90
2018-07-30T22:31:21.106Z,9.57
2018-07-30T22:33:50.481Z,9.80
2018-07-30T22:36:19.945Z,10.50
2018-07-30T22:38:49.460Z,8.40
2018-07-30T22:41:18.762Z,9.43
2018-07-30T22:43:48.118Z,7.90
2018-07-30T22:46:17.530Z,8.03
2018-07-30T22:48:46.980Z,7.30
2018-07-30T22:51:16.530Z,7.30
2018-07-30T22:53:46.098Z,7.47
2018-07-30T22:56:15.458Z,6.67
2018-07-30T22:58:44.906Z,6.60
2018-07-30T23:01:14.362Z,6.60
2018-07-30T23:03:43.901Z,6.63
2018-07-30T23:06:13.510Z,6.20
2018-07-30T23:08:43.088Z,6.33
2018-07-30T23:11:12.586Z,6.00
2018-07-30T23:13:42.128Z,6.30
2018-07-30T23:16:11.676Z,5.60
2018-07-30T23:18:41.087Z,5.50
2018-07-30T23:21:10.753Z,6.43
2018-07-30T23:23:40.289Z,6.43
2018-07-30T23:26:09.807Z,5.93
2018-07-30T23:28:39.191Z,6.80
2018-07-30T23:31:08.524Z,7.20
2018-07-30T23:33:38.059Z,6.33
2018-07-30T23:36:07.450Z,7.67
2018-07-30T23:38:36.961Z,7.50
2018-07-30T23:41:06.503Z,10.45
2018-07-30T23:43:35.961Z,11.17
2018-07-30T23:46:05.519Z,12.23
2018-07-30T23:48:35.121Z,9.97
2018-07-30T23:51:04.849Z,10.10
2018-07-30T23:53:34.331Z,7.93
2018-07-30T23:56:03.853Z,6.97
2018-07-30T23:58:33.389Z,6.23
